Maria S. Merian — DBBT — position and weather

sailwx.info

Track history (hours):
 
Tides and Currents Weather Stations Pressure Air Temp Water Temp Dewpoint Dewpoint Depression Visibility Wind Speed Wind Dir Waves Ship Positions

Oceanographic research ship Maria S. Merian (Germany)

Last reported at 2017-Jun-29 01:00 UTC. Time now 2017-Jun-29 01:48 UTC.
Position N 61°36' W 052°42'.

Length 94.8 m; beam 19.2 m; draft 6.5 m.

Type: Other ship. MMSI: 211753000.

Wind from 360 at 10 knots

Barometer 1012.7 mb
Air temperature 5.5 ° C
Dewpoint 5.5 ° C
Water temperature 5.3 ° C

Date/timePositionNaut miles runAvg speedWind from/ knotsBaromVisibWave heightAir tempDewpointWater temp
2017-Jun-29 01:00N 61°36' W 052°42'1212.3 360 / 101012.7 5.5 5.5 5.3
2017-Jun-29 00:00N 61°24' W 052°36'1818.0 1012.7 4.1 3.9 4.9
2017-Jun-28 23:00N 61°06' W 052°36'1212.0 110 / 41012.0 4.2 3.9 5.6
2017-Jun-28 22:00N 60°54' W 052°36'1818.2 270 / 41011.8 5.3 4.5 5.5
2017-Jun-28 21:00N 60°36' W 052°30'1212.0 210 / 61011.8 5.8 4.5 6.1
2017-Jun-28 20:00N 60°24' W 052°30'1818.0 190 / 61011.4 6.3 4.9 6.0
2017-Jun-28 19:00N 60°06' W 052°30'1212.0 200 / 61011.2 6.5 5.2 6.2
2017-Jun-28 18:00N 59°54' W 052°30'1818.3 210 / 101011.1 6.6 5.0 6.1
2017-Jun-28 17:00N 59°36' W 052°24'1212.0 210 / 81010.7 6.4 4.7 6.2
2017-Jun-28 16:00N 59°24' W 052°24'1212.0 220 / 101011.1 6.7 4.7 6.1
2017-Jun-28 15:00N 59°12' W 052°24'1818.0 220 / 121010.7 6.4 4.7 5.8
2017-Jun-28 14:00N 58°54' W 052°24'1212.4 230 / 121010.8 6.6 4.8 5.8
2017-Jun-28 13:00N 58°42' W 052°18'1818.0 230 / 141010.7 6.4 4.9 5.6
2017-Jun-28 12:00N 58°24' W 052°18'1212.0 240 / 141010.7 6.7 5.2 6.2
2017-Jun-28 11:00N 58°12' W 052°18'1212.0 230 / 141010.8 6.7 5.3 6.4
2017-Jun-28 10:00N 58°00' W 052°18'1818.0 1010.8 6.9 5.5 6.5
2017-Jun-28 09:00N 57°42' W 052°18'1212.0 1010.8 6.9 5.6 6.3
2017-Jun-28 08:00N 57°30' W 052°18'1212.4 210 / 161010.7 7.6 5.7 6.8
2017-Jun-28 07:00N 57°18' W 052°12'1818.0 220 / 141010.6 7.1 5.6 5.9
2017-Jun-28 06:00N 57°00' W 052°12'1212.0 220 / 121010.9 7.3 5.8 6.7
2017-Jun-28 05:00N 56°48' W 052°12'6 0.4 220 / 121010.8 7.5 5.5 6.9
2017-Jun-27 15:00N 56°42' W 052°12'1212.0 130 / 121006.3 7.4 6.1 7.1
2017-Jun-27 14:00N 56°30' W 052°12'1212.0 180 / 41006.5 7.5 6.0 6.8
2017-Jun-27 13:00N 56°18' W 052°12'1818.0 180 / 121006.4 7.8 6.0 6.8
2017-Jun-27 12:00N 56°00' W 052°12'1212.0 180 / 81006.1 7.3 5.7 6.7
2017-Jun-27 11:00N 55°48' W 052°12'1818.3 1006.6 6.7 5.3 6.7
2017-Jun-27 10:00N 55°30' W 052°18'1212.0 1006.9 5.8 5.3 5.2
2017-Jun-27 09:00N 55°18' W 052°18'1818.0 150 / 121006.5 4.6 4.0 4.7
2017-Jun-27 08:00N 55°00' W 052°18'1212.0 130 / 121006.2 4.4 4.1 2.9
2017-Jun-27 07:00N 54°48' W 052°18'1212.0 120 / 121006.0 4.5 4.0 4.0
2017-Jun-27 06:00N 54°36' W 052°18'1818.0 120 / 161004.9 4.4 4.1 3.1
2017-Jun-27 05:00N 54°18' W 052°18'1212.0 100 / 81005.2 4.8 4.4 3.5
2017-Jun-27 04:00N 54°06' W 052°18'1818.0 120 / 81005.0 4.8 4.0 3.8
2017-Jun-27 03:00N 53°48' W 052°18'1212.0 150 / 121005.1 4.5 3.8 4.5
2017-Jun-27 02:00N 53°36' W 052°18'1212.0 140 / 121005.2 4.1 3.2 2.6
2017-Jun-27 01:00N 53°24' W 052°18'1818.0 170 / 121004.9 4.7 3.5 2.9
2017-Jun-27 00:00N 53°06' W 052°18'1212.0 190 / 141004.8 5.1 3.8 3.3
2017-Jun-26 23:00N 52°54' W 052°18'1818.0 200 / 141005.0 5.9 4.1 3.4
2017-Jun-26 22:00N 52°36' W 052°18'1212.0 190 / 211005.2 7.1 4.8 4.1
2017-Jun-26 21:00N 52°24' W 052°18'1818.0 200 / 211005.6 7.3 4.8 3.4
2017-Jun-26 20:00N 52°06' W 052°18'1312.6 200 / 161006.4 7.9 5.9 3.2
2017-Jun-26 19:00N 51°54' W 052°24'1818.0 190 / 141006.8 7.2 4.6 4.1
2017-Jun-26 18:00N 51°36' W 052°24'1212.0 190 / 161007.2 7.9 4.9 4.0
2017-Jun-26 17:00N 51°24' W 052°24'1818.0 210 / 171007.8 7.0 4.4 3.1
2017-Jun-26 16:00N 51°06' W 052°24'1212.0 210 / 141008.4 6.7 4.5 3.7
2017-Jun-26 15:00N 50°54' W 052°24'1818.0 210 / 171008.7 7.3 4.8 4.2
2017-Jun-26 14:00N 50°36' W 052°24'1212.0 220 / 171009.1 7.4 4.7 4.1
2017-Jun-26 13:00N 50°24' W 052°24'1818.0 220 / 191009.7 8.1 5.5 4.5
2017-Jun-26 12:00N 50°06' W 052°24'1212.0 230 / 171010.1 7.9 5.4 4.6
2017-Jun-26 11:00N 49°54' W 052°24'1818.0 230 / 191010.4 7.8 5.5 5.0
2017-Jun-26 10:00N 49°36' W 052°24'1212.0 230 / 191010.7 8.1 5.2 4.7
2017-Jun-26 09:00N 49°24' W 052°24'1818.0 240 / 171011.0 7.7 4.7 4.4
2017-Jun-26 08:00N 49°06' W 052°24'1212.0 240 / 171011.1 8.1 4.6 4.3
2017-Jun-26 07:00N 48°54' W 052°24'1818.0 230 / 171010.9 8.0 4.7 4.3
2017-Jun-26 06:00N 48°36' W 052°24'1212.0 240 / 191010.6 7.3 5.6 4.5
2017-Jun-26 05:00N 48°24' W 052°24'1818.0 270 / 231010.2 8.3 6.0 4.1
2017-Jun-26 04:00N 48°06' W 052°24'1312.7 270 / 171010.1 8.8 6.5 4.6
2017-Jun-26 03:00N 47°54' W 052°30'6 8.9 260 / 271009.4 11.4 7.4 5.5
2017-Jun-26 02:17N 47°48' W 052°28'620.7
2017-Jun-26 02:00N 47°42' W 052°30'2813.2 260 / 231009.3 14.8 8.3 6.8
2017-Jun-26 01:59N 47°44' W 052°30'1111.4
2017-Jun-26 01:00N 47°36' W 052°42'0 0.0 260 / 101009.1 17.7 9.3 5.9
2017-Jun-26 00:00N 47°36' W 052°42'4 4.1 240 / 141008.5 18.910.3 6.1
2017-Jun-25 23:01N 47°36' W 052°36'0 9.5
2017-Jun-25 23:00N 47°36' W 052°36'2 6.0 260 / 291006.9 18.610.3 6.7
2017-Jun-25 22:44N 47°37' W 052°35'2 3.9
2017-Jun-25 22:16N 47°37' W 052°32'2 6.5
2017-Jun-25 22:00N 47°36' W 052°30'355.7 260 / 231005.8 18.4 9.4 6.9
2017-Jun-25 21:56N 47°36' W 052°35'1 1.4
2017-Jun-25 21:23N 47°36' W 052°35'3 8.5
2017-Jun-25 21:00N 47°36' W 052°30'480.0 260 / 291005.0 17.2 9.0 6.6
2017-Jun-25 20:57N 47°33' W 052°31'4 7.5
2017-Jun-25 20:26N 47°36' W 052°30'0 0.8
2017-Jun-25 20:00N 47°36' W 052°30'3104.3 260 / 231004.6 19.6 9.7 7.3
2017-Jun-25 19:58N 47°38' W 052°33'2 3.6
2017-Jun-25 19:28N 47°37' W 052°34'1 3.2
2017-Jun-25 19:00N 47°36' W 052°36'2 6.6 260 / 191004.3 20.512.2 7.5
2017-Jun-25 18:41N 47°36' W 052°33'1 2.9
2017-Jun-25 18:26N 47°35' W 052°34'2 3.8
2017-Jun-25 18:00N 47°36' W 052°36'4 4.0 270 / 141003.9 20.710.9 7.1
2017-Jun-25 17:00N 47°36' W 052°42'0 0.0 250 / 141004.0 22.415.1 6.5
2017-Jun-25 16:00N 47°36' W 052°42'2 2.3 260 / 161003.9 21.816.6 6.3
2017-Jun-25 15:02N 47°34' W 052°42'247.0
2017-Jun-25 15:00N 47°36' W 052°42'0 0.0 250 / 161003.6 20.916.9 6.5
2017-Jun-25 14:00N 47°36' W 052°42'0 0.0 260 / 141002.8 21.717.0 6.5
2017-Jun-25 13:00N 47°36' W 052°42'0 0.0 210 / 121002.4 19.917.0 6.4
2017-Jun-25 12:00N 47°36' W 052°42'2 3.1 230 / 161002.3 17.215.5 6.6
2017-Jun-25 11:19N 47°34' W 052°42'2 6.3
2017-Jun-25 11:00N 47°36' W 052°42'215.6 250 / 61002.5 17.015.9 6.6
2017-Jun-25 10:52N 47°34' W 052°42'0 0.0
2017-Jun-25 10:10N 47°34' W 052°42'210.0
2017-Jun-25 10:00N 47°36' W 052°42'227.3 230 / 61002.3 16.114.7 6.8
2017-Jun-25 09:55N 47°34' W 052°42'0 0.0
2017-Jun-25 09:25N 47°34' W 052°42'2 4.2
2017-Jun-25 09:00N 47°36' W 052°42'0 0.0 230 / 101002.2 16.214.3 6.9
2017-Jun-25 08:00N 47°36' W 052°42'2 1.9 240 / 101002.6 16.214.4 7.0
2017-Jun-25 07:01N 47°34' W 052°42'255.9
2017-Jun-25 07:00N 47°36' W 052°42'215.6 250 / 101001.9 16.214.3 6.9
2017-Jun-25 06:52N 47°34' W 052°42'0 0.0
2017-Jun-25 06:25N 47°34' W 052°42'2 4.2
2017-Jun-25 06:00N 47°36' W 052°42'2 8.4 240 / 121001.4 16.314.7 6.9
2017-Jun-25 05:46N 47°34' W 052°42'0 0.0
2017-Jun-25 05:25N 47°34' W 052°42'2 4.2
2017-Jun-25 05:00N 47°36' W 052°42'227.2 240 / 121001.3 16.314.9 6.9
2017-Jun-25 04:55N 47°34' W 052°42'0 0.0
2017-Jun-25 04:22N 47°34' W 052°42'2 4.8
2017-Jun-25 04:00N 47°36' W 052°42'227.2 240 / 161001.1 17.115.8 6.8
2017-Jun-25 03:55N 47°34' W 052°42'0 0.0
2017-Jun-25 03:25N 47°34' W 052°42'2 4.2
2017-Jun-25 03:00N 47°36' W 052°42'227.0 220 / 211001.5 18.216.8 6.8
2017-Jun-25 02:55N 47°34' W 052°42'0 0.0
2017-Jun-25 02:16N 47°34' W 052°42'2 6.5
2017-Jun-25 02:00N 47°36' W 052°42'2104.3 230 / 61002.2 15.815.1 6.9
2017-Jun-25 01:58N 47°34' W 052°42'0 0.0
2017-Jun-25 01:25N 47°34' W 052°42'2 4.2
2017-Jun-25 01:00N 47°36' W 052°42'2106.0 140 / 41003.3 12.010.9 6.9
2017-Jun-25 00:58N 47°34' W 052°42'0 0.0
2017-Jun-25 00:25N 47°34' W 052°42'2 4.2
2017-Jun-25 00:00N 47°36' W 052°42'227.2 230 / 121005.2 11.810.6 6.8
2017-Jun-24 23:55N 47°34' W 052°42'0 0.0
2017-Jun-24 23:25N 47°34' W 052°42'2 4.2
2017-Jun-24 23:00N 47°36' W 052°42'227.3 130 / 231005.8 10.9 9.6 6.8
2017-Jun-24 22:55N 47°34' W 052°42'0 0.0
2017-Jun-24 22:25N 47°34' W 052°42'2 4.2
2017-Jun-24 22:00N 47°36' W 052°42'227.2 160 / 161008.0 11.210.0 6.7
2017-Jun-24 21:55N 47°34' W 052°42'0 0.0
2017-Jun-24 21:25N 47°34' W 052°42'2 4.2
2017-Jun-24 21:00N 47°36' W 052°42'227.3 120 / 171009.7 10.4 9.2 6.8
2017-Jun-24 20:55N 47°34' W 052°42'0 0.0
2017-Jun-24 20:25N 47°34' W 052°42'2 4.2
2017-Jun-24 20:00N 47°36' W 052°42'227.2 130 / 101011.2 13.311.3 6.7
2017-Jun-24 19:55N 47°34' W 052°42'0 0.0
2017-Jun-24 19:25N 47°34' W 052°42'2 4.2
2017-Jun-24 19:00N 47°36' W 052°42'227.2 160 / 121012.0 13.810.9 6.6
2017-Jun-24 18:55N 47°34' W 052°42'0 0.0
2017-Jun-24 18:25N 47°34' W 052°42'2 4.2
2017-Jun-24 18:00N 47°36' W 052°42'2 6.9 180 / 101012.6 16.410.4 6.6
2017-Jun-24 17:43N 47°34' W 052°42'0 0.0
2017-Jun-24 17:19N 47°34' W 052°42'2 5.5
2017-Jun-24 17:00N 47°36' W 052°42'0 0.0 130 / 81013.4 15.710.7 6.6
2017-Jun-24 16:00N 47°36' W 052°42'0 0.0 170 / 41014.0 16.710.9 6.5
2017-Jun-24 15:00N 47°36' W 052°42'0 0.0 230 / 101014.3 16.610.4 6.5
2017-Jun-24 14:00N 47°36' W 052°42'0 0.0 250 / 141014.6 16.510.3 6.4
2017-Jun-24 13:00N 47°36' W 052°42'2 2.0 240 / 141014.9 17.7 9.8 6.4
2017-Jun-24 12:04N 47°34' W 052°42'222.0
2017-Jun-24 12:00N 47°36' W 052°42'210.9 230 / 61014.8 16.610.1 6.5
2017-Jun-24 11:49N 47°34' W 052°42'2 2.2
2017-Jun-24 11:00N 47°36' W 052°42'2 5.0 230 / 81014.5 14.8 9.6 6.4
2017-Jun-24 10:37N 47°34' W 052°42'0 0.0
2017-Jun-24 10:13N 47°34' W 052°42'2 7.8
2017-Jun-24 10:00N 47°36' W 052°42'227.3 230 / 81014.2 13.9 8.9 6.4
2017-Jun-24 09:55N 47°34' W 052°42'0 0.0
2017-Jun-24 09:13N 47°34' W 052°42'2 7.8
2017-Jun-24 09:00N 47°36' W 052°42'0 0.0 240 / 41014.2 13.1 8.1 6.5
2017-Jun-24 08:00N 47°36' W 052°42'0 0.0 240 / 61013.9 13.3 8.5 6.6
2017-Jun-24 07:00N 47°36' W 052°42'2107.7 260 / 41013.8 13.5 9.2 6.6
2017-Jun-24 06:58N 47°34' W 052°42'0 0.0
2017-Jun-24 06:25N 47°34' W 052°42'2 4.2
2017-Jun-24 06:00N 47°36' W 052°42'2 5.0 250 / 61013.8 13.5 9.8 6.5
2017-Jun-24 05:37N 47°34' W 052°42'0 0.0
2017-Jun-24 05:10N 47°34' W 052°42'210.0
2017-Jun-24 05:00N 47°36' W 052°42'227.1 240 / 61013.6 13.6 9.7 6.4
2017-Jun-24 04:55N 47°34' W 052°42'2 2.0
2017-Jun-24 04:00N 47°36' W 052°42'2 4.4 240 / 81013.6 14.1 9.7 6.5
2017-Jun-24 03:34N 47°34' W 052°42'0 0.0
2017-Jun-24 03:28N 47°34' W 052°42'2 3.8
2017-Jun-24 03:00N 47°36' W 052°42'215.6 240 / 61013.7 14.3 9.8 6.6
2017-Jun-24 02:52N 47°34' W 052°42'0 0.0
2017-Jun-24 02:16N 47°34' W 052°42'2 6.5
2017-Jun-24 02:00N 47°36' W 052°42'2 5.0 230 / 81013.3 14.710.2 6.7
2017-Jun-24 01:37N 47°34' W 052°42'0 0.0
2017-Jun-24 01:28N 47°34' W 052°42'2 3.8
2017-Jun-24 01:00N 47°36' W 052°42'2105.9 270 / 41012.8 15.610.8 6.6
2017-Jun-24 00:58N 47°34' W 052°42'0 0.0
2017-Jun-24 00:28N 47°34' W 052°42'2 3.8
2017-Jun-24 00:00N 47°36' W 052°42'0 0.0 250 / 81012.1 16.510.7 6.4
2017-Jun-23 23:00N 47°36' W 052°42'0 0.0 280 / 81011.2 17.210.9 6.2
2017-Jun-23 22:00N 47°36' W 052°42'0 0.0 270 / 101010.5 18.210.5 6.0
2017-Jun-23 21:00N 47°36' W 052°42'0 0.0 250 / 101010.0 19.010.3 6.2
2017-Jun-23 20:00N 47°36' W 052°42'0 0.0 280 / 101009.7 20.410.0 6.4
2017-Jun-23 19:00N 47°36' W 052°42'5 7.1 130 / 61009.8 8.4 6.1 6.9
2017-Jun-23 18:20N 47°34' W 052°36'516.1
2017-Jun-23 18:00N 47°30' W 052°30'4576.8 170 / 141010.1 7.3 6.3 7.0
2017-Jun-23 17:59N 47°33' W 052°32'1010.1
2017-Jun-23 17:00N 47°30' W 052°18'8 8.1 210 / 121010.1 6.7 5.9 6.0
2017-Jun-23 16:00N 47°30' W 052°06'8 8.1 180 / 171010.5 7.0 6.2 6.8
2017-Jun-23 15:00N 47°30' W 051°54'8 8.1 200 / 161010.6 7.4 6.3 6.5
2017-Jun-23 14:00N 47°30' W 051°42'8 8.1 210 / 141010.7 7.2 6.5 6.0
2017-Jun-23 13:00N 47°30' W 051°30'8 8.1 220 / 121010.6 7.0 6.6 5.6
2017-Jun-23 12:00N 47°30' W 051°18'1010.1 220 / 141010.3 5.7 5.5 5.2
2017-Jun-23 11:00N 47°24' W 051°06'8 8.1 230 / 171010.0 4.9 4.9 4.2
2017-Jun-23 10:00N 47°24' W 050°54'8 8.1 230 / 191009.6 4.8 4.8 4.1
2017-Jun-23 09:00N 47°24' W 050°42'8 8.1 210 / 191009.4 4.8 4.9 4.1
2017-Jun-23 08:00N 47°24' W 050°30'8 8.1 210 / 191009.1 5.6 5.5 4.2
2017-Jun-23 07:00N 47°24' W 050°18'8 8.1 230 / 191009.1 6.2 6.1 4.0
2017-Jun-23 06:00N 47°24' W 050°06'1010.1 240 / 231008.5 6.7 6.5 4.1
2017-Jun-23 05:00N 47°18' W 049°54'4 4.1 230 / 191008.7 6.4 6.6 3.6
2017-Jun-23 04:00N 47°18' W 049°48'8 8.1 240 / 191008.9 6.4 6.3 3.8
2017-Jun-23 03:00N 47°18' W 049°36'8 8.1 230 / 171008.7 6.6 6.6 3.6
2017-Jun-23 02:00N 47°18' W 049°24'8 8.1 240 / 191008.8 7.5 7.5 3.4
2017-Jun-23 01:00N 47°18' W 049°12'8 8.1 260 / 171009.1 10.610.8 3.7
2017-Jun-23 00:00N 47°18' W 049°00'1717.4 280 / 121009.0 10.610.7 3.3
2017-Jun-22 23:00N 47°12' W 048°36'1616.3 010 / 41007.9 6.0 5.8 2.8
2017-Jun-22 22:00N 47°12' W 048°12'1212.2 170 / 121009.2 4.9 4.8 2.8
2017-Jun-22 21:00N 47°12' W 047°54'1717.4 120 / 121009.2 4.8 4.7 3.0
2017-Jun-22 20:00N 47°06' W 047°30'1616.3 170 / 121010.5 4.9 4.9 4.0
2017-Jun-22 19:00N 47°06' W 047°06'0 0.0 160 / 61010.9 4.8 4.7 3.6
2017-Jun-22 18:00N 47°06' W 047°06'0 0.0 220 / 61011.9 5.8 5.7 3.6
2017-Jun-22 17:00N 47°06' W 047°06'0 0.0 230 / 101012.8 5.4 5.3 3.7
2017-Jun-22 16:00N 47°06' W 047°06'8 8.2 220 / 141013.2 4.7 4.5 3.6
2017-Jun-22 15:00N 47°06' W 047°18'0 0.0 190 / 161013.0 5.0 5.0 3.5
2017-Jun-22 14:00N 47°06' W 047°18'0 0.0 190 / 141012.9 5.0 4.8 3.1
2017-Jun-22 13:00N 47°06' W 047°18'4 4.1 220 / 141013.4 5.3 5.1 3.4
2017-Jun-22 12:00N 47°06' W 047°12'0 0.0 230 / 141013.4 5.4 5.3 3.3
2017-Jun-22 11:00N 47°06' W 047°12'4 4.1 220 / 171013.4 5.6 5.6 3.2
2017-Jun-22 10:00N 47°06' W 047°06'4 4.1 220 / 171013.8 5.3 5.1 3.2
2017-Jun-22 09:00N 47°06' W 047°00'0 0.0 210 / 161013.9 5.1 5.0 3.5
2017-Jun-22 08:00N 47°06' W 047°00'12 6.1 220 / 171013.4 5.1 5.0 3.4
2017-Jun-22 06:00N 47°06' W 046°42'0 0.0 230 / 211013.9 5.4 5.3 3.0
2017-Jun-22 05:00N 47°06' W 046°42'4 4.1 250 / 191013.7 5.9 5.9 3.1
2017-Jun-22 04:00N 47°06' W 046°36'0 0.0 240 / 211013.8 6.5 6.5 3.7
2017-Jun-22 03:00N 47°06' W 046°36'8 8.2 240 / 231014.3 6.3 6.2 3.8
2017-Jun-22 02:00N 47°06' W 046°24'4 4.1 230 / 271013.4 7.1 7.1 4.1
2017-Jun-22 01:00N 47°06' W 046°18'8 8.2 230 / 271013.1 8.2 8.1 6.2
2017-Jun-22 00:00N 47°06' W 046°06'1212.3 220 / 271012.7 8.1 7.9 6.3
2017-Jun-21 23:00N 47°06' W 045°48'1212.3 220 / 251012.9 8.3 8.2 6.2
2017-Jun-21 22:00N 47°06' W 045°30'1212.3 220 / 271014.1 8.5 8.3 6.3
2017-Jun-21 21:00N 47°06' W 045°12'1616.3 230 / 251014.0 8.6 8.5 6.7
2017-Jun-21 20:00N 47°06' W 044°48'2512.3 230 / 231014.7 8.6 8.6 6.7
2017-Jun-21 18:00N 47°06' W 044°12'1616.3 230 / 251015.0 9.1 8.9 7.1
2017-Jun-21 17:00N 47°06' W 043°48'2512.3 240 / 251015.3 9.0 8.9 7.1
2017-Jun-21 15:00N 47°06' W 043°12'0 0.0 250 / 231015.8 10.110.0 9.4
2017-Jun-21 14:00N 47°06' W 043°12'0 0.0 250 / 231015.7 10.410.110.6
2017-Jun-21 13:00N 47°06' W 043°12'0 0.0 250 / 231015.9 10.310.110.1
2017-Jun-21 12:00N 47°06' W 043°12'4 4.1 260 / 251015.8 10.710.711.7
2017-Jun-21 11:00N 47°06' W 043°06'4 4.1 260 / 251015.7 10.710.612.8
2017-Jun-21 10:00N 47°06' W 043°00'1212.3 260 / 271015.5 12.212.013.5
2017-Jun-21 09:00N 47°06' W 042°42'4110.2 270 / 271015.4 13.613.512.6
2017-Jun-21 05:00N 47°06' W 041°42'0 0.0 250 / 141015.9 10.510.510.1
2017-Jun-21 04:00N 47°06' W 041°42'4 4.1 250 / 141016.4 10.510.310.1
2017-Jun-21 03:00N 47°06' W 041°36'1212.3 250 / 121016.1 10.610.610.3
2017-Jun-21 02:00N 47°06' W 041°18'0 0.0 230 / 81016.2 10.610.111.0
2017-Jun-21 01:00N 47°06' W 041°18'0 0.0 270 / 101016.6 10.4 9.910.8
2017-Jun-21 00:00N 47°06' W 041°18'4 4.1 250 / 81016.0 10.3 9.810.4
2017-Jun-20 23:00N 47°06' W 041°12'1212.3 280 / 101016.0 10.4 9.9 9.9
2017-Jun-20 22:00N 47°06' W 040°54'1616.3 310 / 101015.5 11.210.511.1
2017-Jun-20 21:00N 47°06' W 040°30'1212.3 310 / 141015.0 11.210.510.9
2017-Jun-20 20:00N 47°06' W 040°12'1717.4 290 / 161014.4 10.710.311.1
2017-Jun-20 19:00N 47°12' W 039°48'1212.2 300 / 121014.0 11.511.111.8
2017-Jun-20 18:00N 47°12' W 039°30'8 8.2 290 / 121013.7 11.611.312.9
2017-Jun-20 17:00N 47°12' W 039°18'1212.2 310 / 121013.3 12.812.214.6
2017-Jun-20 16:00N 47°12' W 039°00'8 8.2 310 / 101013.3 12.611.616.0
2017-Jun-20 15:00N 47°12' W 038°48'1212.2 310 / 121013.3 13.011.816.1
2017-Jun-20 14:00N 47°12' W 038°30'8 8.2 290 / 141013.3 12.811.815.6
2017-Jun-20 13:00N 47°12' W 038°18'8 8.2 240 / 171013.3 13.512.715.1
2017-Jun-20 12:00N 47°12' W 038°06'0 0.0 220 / 251013.7 14.513.815.1
2017-Jun-20 11:00N 47°12' W 038°06'0 0.0 210 / 291014.4 14.113.515.3
2017-Jun-20 10:00N 47°12' W 038°06'0 0.0 210 / 331015.4 14.313.115.4
2017-Jun-20 09:00N 47°12' W 038°06'1212.2 210 / 351015.8 13.812.914.6
2017-Jun-20 08:00N 47°12' W 037°48'6 6.0 210 / 351016.8 13.712.414.5
2017-Jun-20 07:00N 47°18' W 037°48'0 0.0 220 / 291018.8 12.811.613.3
2017-Jun-20 06:00N 47°18' W 037°48'0 0.0 220 / 291019.4 13.710.313.4
2017-Jun-20 05:00N 47°18' W 037°48'1413.6 220 / 291020.5 12.410.813.4
2017-Jun-20 04:00N 47°12' W 038°06'1212.2 220 / 271021.3 13.111.214.8
2017-Jun-20 03:00N 47°12' W 038°24'1616.3 220 / 271021.5 13.810.615.1
2017-Jun-20 02:00N 47°12' W 038°48'1616.3 230 / 271022.2 14.011.315.9
2017-Jun-20 01:00N 47°12' W 039°12'1212.2 220 / 251023.1 13.610.714.9
2017-Jun-20 00:00N 47°12' W 039°30'0 0.0 210 / 191023.8 12.0 9.710.5
2017-Jun-19 23:00N 47°12' W 039°30'0 0.0 210 / 171024.3 11.1 9.510.3
2017-Jun-19 22:00N 47°12' W 039°30'1717.4 220 / 171025.0 11.5 9.6 9.9
2017-Jun-19 21:00N 47°06' W 039°54'1212.3 220 / 171025.5 10.4 9.1 9.4
2017-Jun-19 20:00N 47°06' W 040°12'1616.3 210 / 171025.9 11.3 9.310.7
2017-Jun-19 19:00N 47°06' W 040°36'1212.3 220 / 171026.3 11.5 8.511.0
2017-Jun-19 18:00N 47°06' W 040°54'0 0.0 220 / 171026.6 11.3 8.010.5
2017-Jun-19 17:00N 47°06' W 040°54'4 4.1 220 / 171027.3 11.0 8.610.4
2017-Jun-19 16:00N 47°06' W 041°00'1616.3 220 / 171027.5 10.9 8.810.5
2017-Jun-19 15:00N 47°06' W 041°24'1616.3 220 / 191028.2 10.7 8.310.4
2017-Jun-19 14:00N 47°06' W 041°48'1616.3 230 / 191028.5 11.3 7.7 9.2
2017-Jun-19 13:00N 47°06' W 042°12'4 4.1 230 / 211028.7 11.6 7.613.5
2017-Jun-19 12:00N 47°06' W 042°18'4 4.1 220 / 211029.0 11.6 7.312.7
2017-Jun-19 11:00N 47°06' W 042°12'0 0.0 230 / 191029.5 11.4 6.412.7
2017-Jun-19 10:00N 47°06' W 042°12'4 4.1 230 / 171029.4 11.6 7.312.5
2017-Jun-19 09:00N 47°06' W 042°18'0 0.0 230 / 161029.6 12.2 6.513.6
2017-Jun-19 08:00N 47°06' W 042°18'0 0.0 240 / 141030.3 11.6 7.913.4
2017-Jun-19 07:00N 47°06' W 042°18'4 4.1 260 / 161030.4 11.5 6.813.5
2017-Jun-19 06:00N 47°06' W 042°12'8 8.2 260 / 141030.4 11.5 5.913.4
2017-Jun-19 05:00N 47°06' W 042°00'0 0.0 270 / 141030.2 11.2 8.314.1
2017-Jun-19 04:00N 47°06' W 042°00'0 0.0 250 / 121030.3 11.2 6.413.3
2017-Jun-19 03:00N 47°06' W 042°00'0 0.0 270 / 101030.5 11.2 7.313.0
2017-Jun-19 02:00N 47°06' W 042°00'0 0.0 270 / 121030.5 10.8 7.713.3
2017-Jun-19 01:00N 47°06' W 042°00'   280 / 121030.7 10.3 8.514.1
Track history (hours):
 
Tides and Currents Weather Stations Pressure Air Temp Water Temp Dewpoint Dewpoint Depression Visibility Wind Speed Wind Dir Waves Ship Positions

Oceanographic research ship Maria S. Merian (Germany)

Last reported at 2017-Jun-29 01:00 UTC. Time now 2017-Jun-29 01:48 UTC.
Position N 61°36' W 052°42'.

Length 94.8 m; beam 19.2 m; draft 6.5 m.

Type: Other ship. MMSI: 211753000.

Wind from 360 at 10 knots

Barometer 1012.7 mb
Air temperature 5.5 ° C
Dewpoint 5.5 ° C
Water temperature 5.3 ° C

Date/timePositionNaut miles runAvg speedWind from/ knotsBaromVisibWave heightAir tempDewpointWater temp
2017-Jun-29 01:00N 61°36' W 052°42'1212.3 360 / 101012.7 5.5 5.5 5.3
2017-Jun-29 00:00N 61°24' W 052°36'1818.0 1012.7 4.1 3.9 4.9
2017-Jun-28 23:00N 61°06' W 052°36'1212.0 110 / 41012.0 4.2 3.9 5.6
2017-Jun-28 22:00N 60°54' W 052°36'1818.2 270 / 41011.8 5.3 4.5 5.5
2017-Jun-28 21:00N 60°36' W 052°30'1212.0 210 / 61011.8 5.8 4.5 6.1
2017-Jun-28 20:00N 60°24' W 052°30'1818.0 190 / 61011.4 6.3 4.9 6.0
2017-Jun-28 19:00N 60°06' W 052°30'1212.0 200 / 61011.2 6.5 5.2 6.2
2017-Jun-28 18:00N 59°54' W 052°30'1818.3 210 / 101011.1 6.6 5.0 6.1
2017-Jun-28 17:00N 59°36' W 052°24'1212.0 210 / 81010.7 6.4 4.7 6.2
2017-Jun-28 16:00N 59°24' W 052°24'1212.0 220 / 101011.1 6.7 4.7 6.1
2017-Jun-28 15:00N 59°12' W 052°24'1818.0 220 / 121010.7 6.4 4.7 5.8
2017-Jun-28 14:00N 58°54' W 052°24'1212.4 230 / 121010.8 6.6 4.8 5.8
2017-Jun-28 13:00N 58°42' W 052°18'1818.0 230 / 141010.7 6.4 4.9 5.6
2017-Jun-28 12:00N 58°24' W 052°18'1212.0 240 / 141010.7 6.7 5.2 6.2
2017-Jun-28 11:00N 58°12' W 052°18'1212.0 230 / 141010.8 6.7 5.3 6.4
2017-Jun-28 10:00N 58°00' W 052°18'1818.0 1010.8 6.9 5.5 6.5
2017-Jun-28 09:00N 57°42' W 052°18'1212.0 1010.8 6.9 5.6 6.3
2017-Jun-28 08:00N 57°30' W 052°18'1212.4 210 / 161010.7 7.6 5.7 6.8
2017-Jun-28 07:00N 57°18' W 052°12'1818.0 220 / 141010.6 7.1 5.6 5.9
2017-Jun-28 06:00N 57°00' W 052°12'1212.0 220 / 121010.9 7.3 5.8 6.7
2017-Jun-28 05:00N 56°48' W 052°12'6 0.4 220 / 121010.8 7.5 5.5 6.9
2017-Jun-27 15:00N 56°42' W 052°12'1212.0 130 / 121006.3 7.4 6.1 7.1
2017-Jun-27 14:00N 56°30' W 052°12'1212.0 180 / 41006.5 7.5 6.0 6.8
2017-Jun-27 13:00N 56°18' W 052°12'1818.0 180 / 121006.4 7.8 6.0 6.8
2017-Jun-27 12:00N 56°00' W 052°12'1212.0 180 / 81006.1 7.3 5.7 6.7
2017-Jun-27 11:00N 55°48' W 052°12'1818.3 1006.6 6.7 5.3 6.7
2017-Jun-27 10:00N 55°30' W 052°18'1212.0 1006.9 5.8 5.3 5.2
2017-Jun-27 09:00N 55°18' W 052°18'1818.0 150 / 121006.5 4.6 4.0 4.7
2017-Jun-27 08:00N 55°00' W 052°18'1212.0 130 / 121006.2 4.4 4.1 2.9
2017-Jun-27 07:00N 54°48' W 052°18'1212.0 120 / 121006.0 4.5 4.0 4.0
2017-Jun-27 06:00N 54°36' W 052°18'1818.0 120 / 161004.9 4.4 4.1 3.1
2017-Jun-27 05:00N 54°18' W 052°18'1212.0 100 / 81005.2 4.8 4.4 3.5
2017-Jun-27 04:00N 54°06' W 052°18'1818.0 120 / 81005.0 4.8 4.0 3.8
2017-Jun-27 03:00N 53°48' W 052°18'1212.0 150 / 121005.1 4.5 3.8 4.5
2017-Jun-27 02:00N 53°36' W 052°18'1212.0 140 / 121005.2 4.1 3.2 2.6
2017-Jun-27 01:00N 53°24' W 052°18'1818.0 170 / 121004.9 4.7 3.5 2.9
2017-Jun-27 00:00N 53°06' W 052°18'1212.0 190 / 141004.8 5.1 3.8 3.3
2017-Jun-26 23:00N 52°54' W 052°18'1818.0 200 / 141005.0 5.9 4.1 3.4
2017-Jun-26 22:00N 52°36' W 052°18'1212.0 190 / 211005.2 7.1 4.8 4.1
2017-Jun-26 21:00N 52°24' W 052°18'1818.0 200 / 211005.6 7.3 4.8 3.4
2017-Jun-26 20:00N 52°06' W 052°18'1312.6 200 / 161006.4 7.9 5.9 3.2
2017-Jun-26 19:00N 51°54' W 052°24'1818.0 190 / 141006.8 7.2 4.6 4.1
2017-Jun-26 18:00N 51°36' W 052°24'1212.0 190 / 161007.2 7.9 4.9 4.0
2017-Jun-26 17:00N 51°24' W 052°24'1818.0 210 / 171007.8 7.0 4.4 3.1
2017-Jun-26 16:00N 51°06' W 052°24'1212.0 210 / 141008.4 6.7 4.5 3.7
2017-Jun-26 15:00N 50°54' W 052°24'1818.0 210 / 171008.7 7.3 4.8 4.2
2017-Jun-26 14:00N 50°36' W 052°24'1212.0 220 / 171009.1 7.4 4.7 4.1
2017-Jun-26 13:00N 50°24' W 052°24'1818.0 220 / 191009.7 8.1 5.5 4.5
2017-Jun-26 12:00N 50°06' W 052°24'1212.0 230 / 171010.1 7.9 5.4 4.6
2017-Jun-26 11:00N 49°54' W 052°24'1818.0 230 / 191010.4 7.8 5.5 5.0
2017-Jun-26 10:00N 49°36' W 052°24'1212.0 230 / 191010.7 8.1 5.2 4.7
2017-Jun-26 09:00N 49°24' W 052°24'1818.0 240 / 171011.0 7.7 4.7 4.4
2017-Jun-26 08:00N 49°06' W 052°24'1212.0 240 / 171011.1 8.1 4.6 4.3
2017-Jun-26 07:00N 48°54' W 052°24'1818.0 230 / 171010.9 8.0 4.7 4.3
2017-Jun-26 06:00N 48°36' W 052°24'1212.0 240 / 191010.6 7.3 5.6 4.5
2017-Jun-26 05:00N 48°24' W 052°24'1818.0 270 / 231010.2 8.3 6.0 4.1
2017-Jun-26 04:00N 48°06' W 052°24'1312.7 270 / 171010.1 8.8 6.5 4.6
2017-Jun-26 03:00N 47°54' W 052°30'6 8.9 260 / 271009.4 11.4 7.4 5.5
2017-Jun-26 02:17N 47°48' W 052°28'620.7
2017-Jun-26 02:00N 47°42' W 052°30'2813.2 260 / 231009.3 14.8 8.3 6.8
2017-Jun-26 01:59N 47°44' W 052°30'1111.4
2017-Jun-26 01:00N 47°36' W 052°42'0 0.0 260 / 101009.1 17.7 9.3 5.9
2017-Jun-26 00:00N 47°36' W 052°42'4 4.1 240 / 141008.5 18.910.3 6.1
2017-Jun-25 23:01N 47°36' W 052°36'0 9.5
2017-Jun-25 23:00N 47°36' W 052°36'2 6.0 260 / 291006.9 18.610.3 6.7
2017-Jun-25 22:44N 47°37' W 052°35'2 3.9
2017-Jun-25 22:16N 47°37' W 052°32'2 6.5
2017-Jun-25 22:00N 47°36' W 052°30'355.7 260 / 231005.8 18.4 9.4 6.9
2017-Jun-25 21:56N 47°36' W 052°35'1 1.4
2017-Jun-25 21:23N 47°36' W 052°35'3 8.5
2017-Jun-25 21:00N 47°36' W 052°30'480.0 260 / 291005.0 17.2 9.0 6.6
2017-Jun-25 20:57N 47°33' W 052°31'4 7.5
2017-Jun-25 20:26N 47°36' W 052°30'0 0.8
2017-Jun-25 20:00N 47°36' W 052°30'3104.3 260 / 231004.6 19.6 9.7 7.3
2017-Jun-25 19:58N 47°38' W 052°33'2 3.6
2017-Jun-25 19:28N 47°37' W 052°34'1 3.2
2017-Jun-25 19:00N 47°36' W 052°36'2 6.6 260 / 191004.3 20.512.2 7.5
2017-Jun-25 18:41N 47°36' W 052°33'1 2.9
2017-Jun-25 18:26N 47°35' W 052°34'2 3.8
2017-Jun-25 18:00N 47°36' W 052°36'4 4.0 270 / 141003.9 20.710.9 7.1
2017-Jun-25 17:00N 47°36' W 052°42'0 0.0 250 / 141004.0 22.415.1 6.5
2017-Jun-25 16:00N 47°36' W 052°42'2 2.3 260 / 161003.9 21.816.6 6.3
2017-Jun-25 15:02N 47°34' W 052°42'247.0
2017-Jun-25 15:00N 47°36' W 052°42'0 0.0 250 / 161003.6 20.916.9 6.5
2017-Jun-25 14:00N 47°36' W 052°42'0 0.0 260 / 141002.8 21.717.0 6.5
2017-Jun-25 13:00N 47°36' W 052°42'0 0.0 210 / 121002.4 19.917.0 6.4
2017-Jun-25 12:00N 47°36' W 052°42'2 3.1 230 / 161002.3 17.215.5 6.6
2017-Jun-25 11:19N 47°34' W 052°42'2 6.3
2017-Jun-25 11:00N 47°36' W 052°42'215.6 250 / 61002.5 17.015.9 6.6
2017-Jun-25 10:52N 47°34' W 052°42'0 0.0
2017-Jun-25 10:10N 47°34' W 052°42'210.0
2017-Jun-25 10:00N 47°36' W 052°42'227.3 230 / 61002.3 16.114.7 6.8
2017-Jun-25 09:55N 47°34' W 052°42'0 0.0
2017-Jun-25 09:25N 47°34' W 052°42'2 4.2
2017-Jun-25 09:00N 47°36' W 052°42'0 0.0 230 / 101002.2 16.214.3 6.9
2017-Jun-25 08:00N 47°36' W 052°42'2 1.9 240 / 101002.6 16.214.4 7.0
2017-Jun-25 07:01N 47°34' W 052°42'255.9
2017-Jun-25 07:00N 47°36' W 052°42'215.6 250 / 101001.9 16.214.3 6.9
2017-Jun-25 06:52N 47°34' W 052°42'0 0.0
2017-Jun-25 06:25N 47°34' W 052°42'2 4.2
2017-Jun-25 06:00N 47°36' W 052°42'2 8.4 240 / 121001.4 16.314.7 6.9
2017-Jun-25 05:46N 47°34' W 052°42'0 0.0
2017-Jun-25 05:25N 47°34' W 052°42'2 4.2
2017-Jun-25 05:00N 47°36' W 052°42'227.2 240 / 121001.3 16.314.9 6.9
2017-Jun-25 04:55N 47°34' W 052°42'0 0.0
2017-Jun-25 04:22N 47°34' W 052°42'2 4.8
2017-Jun-25 04:00N 47°36' W 052°42'227.2 240 / 161001.1 17.115.8 6.8
2017-Jun-25 03:55N 47°34' W 052°42'0 0.0
2017-Jun-25 03:25N 47°34' W 052°42'2 4.2
2017-Jun-25 03:00N 47°36' W 052°42'227.0 220 / 211001.5 18.216.8 6.8
2017-Jun-25 02:55N 47°34' W 052°42'0 0.0
2017-Jun-25 02:16N 47°34' W 052°42'2 6.5
2017-Jun-25 02:00N 47°36' W 052°42'2104.3 230 / 61002.2 15.815.1 6.9
2017-Jun-25 01:58N 47°34' W 052°42'0 0.0
2017-Jun-25 01:25N 47°34' W 052°42'2 4.2
2017-Jun-25 01:00N 47°36' W 052°42'2106.0 140 / 41003.3 12.010.9 6.9
2017-Jun-25 00:58N 47°34' W 052°42'0 0.0
2017-Jun-25 00:25N 47°34' W 052°42'2 4.2
2017-Jun-25 00:00N 47°36' W 052°42'227.2 230 / 121005.2 11.810.6 6.8
2017-Jun-24 23:55N 47°34' W 052°42'0 0.0
2017-Jun-24 23:25N 47°34' W 052°42'2 4.2
2017-Jun-24 23:00N 47°36' W 052°42'227.3 130 / 231005.8 10.9 9.6 6.8
2017-Jun-24 22:55N 47°34' W 052°42'0 0.0
2017-Jun-24 22:25N 47°34' W 052°42'2 4.2
2017-Jun-24 22:00N 47°36' W 052°42'227.2 160 / 161008.0 11.210.0 6.7
2017-Jun-24 21:55N 47°34' W 052°42'0 0.0
2017-Jun-24 21:25N 47°34' W 052°42'2 4.2
2017-Jun-24 21:00N 47°36' W 052°42'227.3 120 / 171009.7 10.4 9.2 6.8
2017-Jun-24 20:55N 47°34' W 052°42'0 0.0
2017-Jun-24 20:25N 47°34' W 052°42'2 4.2
2017-Jun-24 20:00N 47°36' W 052°42'227.2 130 / 101011.2 13.311.3 6.7
2017-Jun-24 19:55N 47°34' W 052°42'0 0.0
2017-Jun-24 19:25N 47°34' W 052°42'2 4.2
2017-Jun-24 19:00N 47°36' W 052°42'227.2 160 / 121012.0 13.810.9 6.6
2017-Jun-24 18:55N 47°34' W 052°42'0 0.0
2017-Jun-24 18:25N 47°34' W 052°42'2 4.2
2017-Jun-24 18:00N 47°36' W 052°42'2 6.9 180 / 101012.6 16.410.4 6.6
2017-Jun-24 17:43N 47°34' W 052°42'0 0.0
2017-Jun-24 17:19N 47°34' W 052°42'2 5.5
2017-Jun-24 17:00N 47°36' W 052°42'0 0.0 130 / 81013.4 15.710.7 6.6
2017-Jun-24 16:00N 47°36' W 052°42'0 0.0 170 / 41014.0 16.710.9 6.5
2017-Jun-24 15:00N 47°36' W 052°42'0 0.0 230 / 101014.3 16.610.4 6.5
2017-Jun-24 14:00N 47°36' W 052°42'0 0.0 250 / 141014.6 16.510.3 6.4
2017-Jun-24 13:00N 47°36' W 052°42'2 2.0 240 / 141014.9 17.7 9.8 6.4
2017-Jun-24 12:04N 47°34' W 052°42'222.0
2017-Jun-24 12:00N 47°36' W 052°42'210.9 230 / 61014.8 16.610.1 6.5
2017-Jun-24 11:49N 47°34' W 052°42'2 2.2
2017-Jun-24 11:00N 47°36' W 052°42'2 5.0 230 / 81014.5 14.8 9.6 6.4
2017-Jun-24 10:37N 47°34' W 052°42'0 0.0
2017-Jun-24 10:13N 47°34' W 052°42'2 7.8
2017-Jun-24 10:00N 47°36' W 052°42'227.3 230 / 81014.2 13.9 8.9 6.4
2017-Jun-24 09:55N 47°34' W 052°42'0 0.0
2017-Jun-24 09:13N 47°34' W 052°42'2 7.8
2017-Jun-24 09:00N 47°36' W 052°42'0 0.0 240 / 41014.2 13.1 8.1 6.5
2017-Jun-24 08:00N 47°36' W 052°42'0 0.0 240 / 61013.9 13.3 8.5 6.6
2017-Jun-24 07:00N 47°36' W 052°42'2107.7 260 / 41013.8 13.5 9.2 6.6
2017-Jun-24 06:58N 47°34' W 052°42'0 0.0
2017-Jun-24 06:25N 47°34' W 052°42'2 4.2
2017-Jun-24 06:00N 47°36' W 052°42'2 5.0 250 / 61013.8 13.5 9.8 6.5
2017-Jun-24 05:37N 47°34' W 052°42'0 0.0
2017-Jun-24 05:10N 47°34' W 052°42'210.0
2017-Jun-24 05:00N 47°36' W 052°42'227.1 240 / 61013.6 13.6 9.7 6.4
2017-Jun-24 04:55N 47°34' W 052°42'2 2.0
2017-Jun-24 04:00N 47°36' W 052°42'2 4.4 240 / 81013.6 14.1 9.7 6.5
2017-Jun-24 03:34N 47°34' W 052°42'0 0.0
2017-Jun-24 03:28N 47°34' W 052°42'2 3.8
2017-Jun-24 03:00N 47°36' W 052°42'215.6 240 / 61013.7 14.3 9.8 6.6
2017-Jun-24 02:52N 47°34' W 052°42'0 0.0
2017-Jun-24 02:16N 47°34' W 052°42'2 6.5
2017-Jun-24 02:00N 47°36' W 052°42'2 5.0 230 / 81013.3 14.710.2 6.7
2017-Jun-24 01:37N 47°34' W 052°42'0 0.0
2017-Jun-24 01:28N 47°34' W 052°42'2 3.8
2017-Jun-24 01:00N 47°36' W 052°42'2105.9 270 / 41012.8 15.610.8 6.6
2017-Jun-24 00:58N 47°34' W 052°42'0 0.0
2017-Jun-24 00:28N 47°34' W 052°42'2 3.8
2017-Jun-24 00:00N 47°36' W 052°42'0 0.0 250 / 81012.1 16.510.7 6.4
2017-Jun-23 23:00N 47°36' W 052°42'0 0.0 280 / 81011.2 17.210.9 6.2
2017-Jun-23 22:00N 47°36' W 052°42'0 0.0 270 / 101010.5 18.210.5 6.0
2017-Jun-23 21:00N 47°36' W 052°42'0 0.0 250 / 101010.0 19.010.3 6.2
2017-Jun-23 20:00N 47°36' W 052°42'0 0.0 280 / 101009.7 20.410.0 6.4
2017-Jun-23 19:00N 47°36' W 052°42'5 7.1 130 / 61009.8 8.4 6.1 6.9
2017-Jun-23 18:20N 47°34' W 052°36'516.1
2017-Jun-23 18:00N 47°30' W 052°30'4576.8 170 / 141010.1 7.3 6.3 7.0
2017-Jun-23 17:59N 47°33' W 052°32'1010.1
2017-Jun-23 17:00N 47°30' W 052°18'8 8.1 210 / 121010.1 6.7 5.9 6.0
2017-Jun-23 16:00N 47°30' W 052°06'8 8.1 180 / 171010.5 7.0 6.2 6.8
2017-Jun-23 15:00N 47°30' W 051°54'8 8.1 200 / 161010.6 7.4 6.3 6.5
2017-Jun-23 14:00N 47°30' W 051°42'8 8.1 210 / 141010.7 7.2 6.5 6.0
2017-Jun-23 13:00N 47°30' W 051°30'8 8.1 220 / 121010.6 7.0 6.6 5.6
2017-Jun-23 12:00N 47°30' W 051°18'1010.1 220 / 141010.3 5.7 5.5 5.2
2017-Jun-23 11:00N 47°24' W 051°06'8 8.1 230 / 171010.0 4.9 4.9 4.2
2017-Jun-23 10:00N 47°24' W 050°54'8 8.1 230 / 191009.6 4.8 4.8 4.1
2017-Jun-23 09:00N 47°24' W 050°42'8 8.1 210 / 191009.4 4.8 4.9 4.1
2017-Jun-23 08:00N 47°24' W 050°30'8 8.1 210 / 191009.1 5.6 5.5 4.2
2017-Jun-23 07:00N 47°24' W 050°18'8 8.1 230 / 191009.1 6.2 6.1 4.0
2017-Jun-23 06:00N 47°24' W 050°06'1010.1 240 / 231008.5 6.7 6.5 4.1
2017-Jun-23 05:00N 47°18' W 049°54'4 4.1 230 / 191008.7 6.4 6.6 3.6
2017-Jun-23 04:00N 47°18' W 049°48'8 8.1 240 / 191008.9 6.4 6.3 3.8
2017-Jun-23 03:00N 47°18' W 049°36'8 8.1 230 / 171008.7 6.6 6.6 3.6
2017-Jun-23 02:00N 47°18' W 049°24'8 8.1 240 / 191008.8 7.5 7.5 3.4
2017-Jun-23 01:00N 47°18' W 049°12'8 8.1 260 / 171009.1 10.610.8 3.7
2017-Jun-23 00:00N 47°18' W 049°00'1717.4 280 / 121009.0 10.610.7 3.3
2017-Jun-22 23:00N 47°12' W 048°36'1616.3 010 / 41007.9 6.0 5.8 2.8
2017-Jun-22 22:00N 47°12' W 048°12'1212.2 170 / 121009.2 4.9 4.8 2.8
2017-Jun-22 21:00N 47°12' W 047°54'1717.4 120 / 121009.2 4.8 4.7 3.0
2017-Jun-22 20:00N 47°06' W 047°30'1616.3 170 / 121010.5 4.9 4.9 4.0
2017-Jun-22 19:00N 47°06' W 047°06'0 0.0 160 / 61010.9 4.8 4.7 3.6
2017-Jun-22 18:00N 47°06' W 047°06'0 0.0 220 / 61011.9 5.8 5.7 3.6
2017-Jun-22 17:00N 47°06' W 047°06'0 0.0 230 / 101012.8 5.4 5.3 3.7
2017-Jun-22 16:00N 47°06' W 047°06'8 8.2 220 / 141013.2 4.7 4.5 3.6
2017-Jun-22 15:00N 47°06' W 047°18'0 0.0 190 / 161013.0 5.0 5.0 3.5
2017-Jun-22 14:00N 47°06' W 047°18'0 0.0 190 / 141012.9 5.0 4.8 3.1
2017-Jun-22 13:00N 47°06' W 047°18'4 4.1 220 / 141013.4 5.3 5.1 3.4
2017-Jun-22 12:00N 47°06' W 047°12'0 0.0 230 / 141013.4 5.4 5.3 3.3
2017-Jun-22 11:00N 47°06' W 047°12'4 4.1 220 / 171013.4 5.6 5.6 3.2
2017-Jun-22 10:00N 47°06' W 047°06'4 4.1 220 / 171013.8 5.3 5.1 3.2
2017-Jun-22 09:00N 47°06' W 047°00'0 0.0 210 / 161013.9 5.1 5.0 3.5
2017-Jun-22 08:00N 47°06' W 047°00'12 6.1 220 / 171013.4 5.1 5.0 3.4
2017-Jun-22 06:00N 47°06' W 046°42'0 0.0 230 / 211013.9 5.4 5.3 3.0
2017-Jun-22 05:00N 47°06' W 046°42'4 4.1 250 / 191013.7 5.9 5.9 3.1
2017-Jun-22 04:00N 47°06' W 046°36'0 0.0 240 / 211013.8 6.5 6.5 3.7
2017-Jun-22 03:00N 47°06' W 046°36'8 8.2 240 / 231014.3 6.3 6.2 3.8
2017-Jun-22 02:00N 47°06' W 046°24'4 4.1 230 / 271013.4 7.1 7.1 4.1
2017-Jun-22 01:00N 47°06' W 046°18'8 8.2 230 / 271013.1 8.2 8.1 6.2
2017-Jun-22 00:00N 47°06' W 046°06'1212.3 220 / 271012.7 8.1 7.9 6.3
2017-Jun-21 23:00N 47°06' W 045°48'1212.3 220 / 251012.9 8.3 8.2 6.2
2017-Jun-21 22:00N 47°06' W 045°30'1212.3 220 / 271014.1 8.5 8.3 6.3
2017-Jun-21 21:00N 47°06' W 045°12'1616.3 230 / 251014.0 8.6 8.5 6.7
2017-Jun-21 20:00N 47°06' W 044°48'2512.3 230 / 231014.7 8.6 8.6 6.7
2017-Jun-21 18:00N 47°06' W 044°12'1616.3 230 / 251015.0 9.1 8.9 7.1
2017-Jun-21 17:00N 47°06' W 043°48'2512.3 240 / 251015.3 9.0 8.9 7.1
2017-Jun-21 15:00N 47°06' W 043°12'0 0.0 250 / 231015.8 10.110.0 9.4
2017-Jun-21 14:00N 47°06' W 043°12'0 0.0 250 / 231015.7 10.410.110.6
2017-Jun-21 13:00N 47°06' W 043°12'0 0.0 250 / 231015.9 10.310.110.1
2017-Jun-21 12:00N 47°06' W 043°12'4 4.1 260 / 251015.8 10.710.711.7
2017-Jun-21 11:00N 47°06' W 043°06'4 4.1 260 / 251015.7 10.710.612.8
2017-Jun-21 10:00N 47°06' W 043°00'1212.3 260 / 271015.5 12.212.013.5
2017-Jun-21 09:00N 47°06' W 042°42'4110.2 270 / 271015.4 13.613.512.6
2017-Jun-21 05:00N 47°06' W 041°42'0 0.0 250 / 141015.9 10.510.510.1
2017-Jun-21 04:00N 47°06' W 041°42'4 4.1 250 / 141016.4 10.510.310.1
2017-Jun-21 03:00N 47°06' W 041°36'1212.3 250 / 121016.1 10.610.610.3
2017-Jun-21 02:00N 47°06' W 041°18'0 0.0 230 / 81016.2 10.610.111.0
2017-Jun-21 01:00N 47°06' W 041°18'0 0.0 270 / 101016.6 10.4 9.910.8
2017-Jun-21 00:00N 47°06' W 041°18'4 4.1 250 / 81016.0 10.3 9.810.4
2017-Jun-20 23:00N 47°06' W 041°12'1212.3 280 / 101016.0 10.4 9.9 9.9
2017-Jun-20 22:00N 47°06' W 040°54'1616.3 310 / 101015.5 11.210.511.1
2017-Jun-20 21:00N 47°06' W 040°30'1212.3 310 / 141015.0 11.210.510.9
2017-Jun-20 20:00N 47°06' W 040°12'1717.4 290 / 161014.4 10.710.311.1
2017-Jun-20 19:00N 47°12' W 039°48'1212.2 300 / 121014.0 11.511.111.8
2017-Jun-20 18:00N 47°12' W 039°30'8 8.2 290 / 121013.7 11.611.312.9
2017-Jun-20 17:00N 47°12' W 039°18'1212.2 310 / 121013.3 12.812.214.6
2017-Jun-20 16:00N 47°12' W 039°00'8 8.2 310 / 101013.3 12.611.616.0
2017-Jun-20 15:00N 47°12' W 038°48'1212.2 310 / 121013.3 13.011.816.1
2017-Jun-20 14:00N 47°12' W 038°30'8 8.2 290 / 141013.3 12.811.815.6
2017-Jun-20 13:00N 47°12' W 038°18'8 8.2 240 / 171013.3 13.512.715.1
2017-Jun-20 12:00N 47°12' W 038°06'0 0.0 220 / 251013.7 14.513.815.1
2017-Jun-20 11:00N 47°12' W 038°06'0 0.0 210 / 291014.4 14.113.515.3
2017-Jun-20 10:00N 47°12' W 038°06'0 0.0 210 / 331015.4 14.313.115.4
2017-Jun-20 09:00N 47°12' W 038°06'1212.2 210 / 351015.8 13.812.914.6
2017-Jun-20 08:00N 47°12' W 037°48'6 6.0 210 / 351016.8 13.712.414.5
2017-Jun-20 07:00N 47°18' W 037°48'0 0.0 220 / 291018.8 12.811.613.3
2017-Jun-20 06:00N 47°18' W 037°48'0 0.0 220 / 291019.4 13.710.313.4
2017-Jun-20 05:00N 47°18' W 037°48'1413.6 220 / 291020.5 12.410.813.4
2017-Jun-20 04:00N 47°12' W 038°06'1212.2 220 / 271021.3 13.111.214.8
2017-Jun-20 03:00N 47°12' W 038°24'1616.3 220 / 271021.5 13.810.615.1
2017-Jun-20 02:00N 47°12' W 038°48'1616.3 230 / 271022.2 14.011.315.9
2017-Jun-20 01:00N 47°12' W 039°12'1212.2 220 / 251023.1 13.610.714.9
2017-Jun-20 00:00N 47°12' W 039°30'0 0.0 210 / 191023.8 12.0 9.710.5
2017-Jun-19 23:00N 47°12' W 039°30'0 0.0 210 / 171024.3 11.1 9.510.3
2017-Jun-19 22:00N 47°12' W 039°30'1717.4 220 / 171025.0 11.5 9.6 9.9
2017-Jun-19 21:00N 47°06' W 039°54'1212.3 220 / 171025.5 10.4 9.1 9.4
2017-Jun-19 20:00N 47°06' W 040°12'1616.3 210 / 171025.9 11.3 9.310.7
2017-Jun-19 19:00N 47°06' W 040°36'1212.3 220 / 171026.3 11.5 8.511.0
2017-Jun-19 18:00N 47°06' W 040°54'0 0.0 220 / 171026.6 11.3 8.010.5
2017-Jun-19 17:00N 47°06' W 040°54'4 4.1 220 / 171027.3 11.0 8.610.4
2017-Jun-19 16:00N 47°06' W 041°00'1616.3 220 / 171027.5 10.9 8.810.5
2017-Jun-19 15:00N 47°06' W 041°24'1616.3 220 / 191028.2 10.7 8.310.4
2017-Jun-19 14:00N 47°06' W 041°48'1616.3 230 / 191028.5 11.3 7.7 9.2
2017-Jun-19 13:00N 47°06' W 042°12'4 4.1 230 / 211028.7 11.6 7.613.5
2017-Jun-19 12:00N 47°06' W 042°18'4 4.1 220 / 211029.0 11.6 7.312.7
2017-Jun-19 11:00N 47°06' W 042°12'0 0.0 230 / 191029.5 11.4 6.412.7
2017-Jun-19 10:00N 47°06' W 042°12'4 4.1 230 / 171029.4 11.6 7.312.5
2017-Jun-19 09:00N 47°06' W 042°18'0 0.0 230 / 161029.6 12.2 6.513.6
2017-Jun-19 08:00N 47°06' W 042°18'0 0.0 240 / 141030.3 11.6 7.913.4
2017-Jun-19 07:00N 47°06' W 042°18'4 4.1 260 / 161030.4 11.5 6.813.5
2017-Jun-19 06:00N 47°06' W 042°12'8 8.2 260 / 141030.4 11.5 5.913.4
2017-Jun-19 05:00N 47°06' W 042°00'0 0.0 270 / 141030.2 11.2 8.314.1
2017-Jun-19 04:00N 47°06' W 042°00'0 0.0 250 / 121030.3 11.2 6.413.3
2017-Jun-19 03:00N 47°06' W 042°00'0 0.0 270 / 101030.5 11.2 7.313.0
2017-Jun-19 02:00N 47°06' W 042°00'0 0.0 270 / 121030.5 10.8 7.713.3
2017-Jun-19 01:00N 47°06' W 042°00'   280 / 121030.7 10.3 8.514.1

Dump ship's entire track history